createdAt,value
2018-10-11T00:00:01.250Z,8.37
2018-10-11T00:02:30.291Z,7.13
2018-10-11T00:04:59.346Z,7.80
2018-10-11T00:07:28.400Z,7.10
2018-10-11T00:09:57.475Z,7.57
2018-10-11T00:12:26.522Z,7.50
2018-10-11T00:14:55.625Z,7.63
2018-10-11T00:17:24.671Z,7.93
2018-10-11T00:19:54.057Z,7.17
2018-10-11T00:22:23.480Z,7.80
2018-10-11T00:24:52.544Z,7.20
2018-10-11T00:27:21.704Z,6.97
2018-10-11T00:29:50.764Z,7.53
2018-10-11T00:32:19.907Z,7.37
2018-10-11T00:34:48.974Z,7.93
2018-10-11T00:37:18.049Z,7.23
2018-10-11T00:39:47.342Z,6.67
2018-10-11T00:42:16.549Z,6.57
2018-10-11T00:44:45.643Z,8.63
2018-10-11T00:47:14.739Z,7.43
2018-10-11T00:49:43.835Z,7.53
2018-10-11T00:52:12.925Z,7.30
2018-10-11T00:54:42.052Z,8.00
2018-10-11T00:57:11.150Z,7.07
2018-10-11T00:59:40.319Z,12.47
2018-10-11T01:02:09.478Z,7.47
2018-10-11T01:04:38.604Z,7.17
2018-10-11T01:07:07.656Z,8.00
2018-10-11T01:09:36.727Z,7.33
2018-10-11T01:12:06.005Z,8.20
2018-10-11T01:14:35.098Z,7.20
2018-10-11T01:17:04.204Z,8.53
2018-10-11T01:19:33.271Z,7.70
2018-10-11T01:22:02.396Z,8.43
2018-10-11T01:24:31.563Z,6.70
2018-10-11T01:27:00.676Z,8.53
2018-10-11T01:29:29.837Z,8.40
2018-10-11T01:31:59.086Z,8.60
2018-10-11T01:34:28.399Z,8.73
2018-10-11T01:36:57.455Z,7.67
2018-10-11T01:39:26.491Z,7.87
2018-10-11T01:41:55.587Z,9.70
2018-10-11T01:44:24.675Z,8.73
2018-10-11T01:46:54.107Z,8.10
2018-10-11T01:49:23.207Z,9.00
2018-10-11T01:51:52.264Z,7.37
2018-10-11T01:54:21.363Z,8.70
2018-10-11T01:56:50.465Z,9.07
2018-10-11T01:59:19.793Z,8.67
2018-10-11T02:01:48.867Z,8.30
2018-10-11T02:04:17.983Z,7.77
2018-10-11T02:06:47.017Z,8.70
2018-10-11T02:09:16.137Z,8.73
2018-10-11T02:11:45.206Z,8.47
2018-10-11T02:14:14.331Z,10.20
2018-10-11T02:16:43.597Z,9.83
2018-10-11T02:19:12.719Z,8.90
2018-10-11T02:21:41.759Z,9.57
2018-10-11T02:24:11.419Z,8.13
2018-10-11T02:26:45.859Z,9.30
2018-10-11T02:29:20.495Z,9.30
2018-10-11T02:31:49.606Z,7.90
2018-10-11T02:34:18.951Z,8.17
2018-10-11T02:36:48.066Z,10.33
2018-10-11T02:39:17.175Z,8.40
2018-10-11T02:41:46.271Z,9.20
2018-10-11T02:44:15.487Z,8.90
2018-10-11T02:46:44.567Z,11.10
2018-10-11T02:49:13.644Z,14.80
2018-10-11T02:51:42.705Z,14.47
2018-10-11T02:54:11.786Z,21.30
2018-10-11T02:56:41.476Z,31.20
2018-10-11T02:59:21.633Z,37.40
2018-10-11T03:01:51.234Z,37.90
2018-10-11T03:04:20.329Z,32.47
2018-10-11T03:06:49.638Z,36.60
2018-10-11T03:09:18.712Z,32.17
2018-10-11T03:11:48.056Z,25.37
2018-10-11T03:14:17.162Z,29.70
2018-10-11T03:16:46.195Z,27.53
2018-10-11T03:19:15.311Z,38.30
2018-10-11T03:21:44.406Z,22.27
2018-10-11T03:24:13.553Z,27.70
2018-10-11T03:26:42.804Z,26.53
2018-10-11T03:29:11.908Z,24.50
2018-10-11T03:31:40.986Z,29.83
2018-10-11T03:34:10.042Z,26.40
2018-10-11T03:36:39.110Z,26.80
2018-10-11T03:39:08.335Z,28.73
2018-10-11T03:41:37.384Z,25.40
2018-10-11T03:44:06.672Z,28.13
2018-10-11T03:46:41.717Z,25.40
2018-10-11T03:49:16.347Z,25.77
2018-10-11T03:51:45.548Z,24.50
2018-10-11T03:54:14.662Z,21.57
2018-10-11T03:56:43.932Z,24.40
2018-10-11T03:59:13.320Z,20.83
2018-10-11T04:01:42.434Z,27.07
2018-10-11T04:04:11.522Z,26.50
2018-10-11T04:06:40.574Z,20.43
2018-10-11T04:09:09.712Z,25.83
2018-10-11T04:11:38.842Z,24.20
2018-10-11T04:14:07.803Z,21.90
2018-10-11T04:16:36.899Z,23.77
2018-10-11T04:19:06.514Z,27.53
2018-10-11T04:21:35.549Z,21.67
2018-10-11T04:24:04.604Z,19.00
2018-10-11T04:26:33.691Z,23.00
2018-10-11T04:29:02.903Z,20.47
2018-10-11T04:31:32.004Z,22.00
2018-10-11T04:34:01.068Z,18.13
2018-10-11T04:36:30.127Z,20.30
2018-10-11T04:38:59.239Z,17.93
2018-10-11T04:41:28.383Z,18.80
2018-10-11T04:43:57.535Z,18.67
2018-10-11T04:46:26.658Z,17.03
2018-10-11T04:48:55.760Z,17.17
2018-10-11T04:51:24.891Z,23.53
2018-10-11T04:53:54.951Z,17.80
2018-10-11T04:56:25.154Z,17.97
2018-10-11T04:58:54.464Z,17.60
2018-10-11T05:01:23.511Z,15.63
2018-10-11T05:03:52.795Z,17.53
2018-10-11T05:06:21.890Z,18.53
2018-10-11T05:08:51.083Z,14.93
2018-10-11T05:11:20.504Z,16.53
2018-10-11T05:13:50.782Z,16.67
2018-10-11T05:16:19.950Z,16.67
2018-10-11T05:18:53.250Z,14.07
2018-10-11T05:21:22.653Z,18.67
2018-10-11T05:23:51.883Z,13.47
2018-10-11T05:26:21.139Z,15.00
2018-10-11T05:28:50.202Z,15.53
2018-10-11T05:31:19.252Z,14.03
2018-10-11T05:33:48.431Z,12.63
2018-10-11T05:36:17.458Z,14.47
2018-10-11T05:38:46.551Z,13.97
2018-10-11T05:41:15.703Z,14.53
2018-10-11T05:43:44.787Z,13.23
2018-10-11T05:46:26.683Z,12.57
2018-10-11T05:48:56.855Z,14.37
2018-10-11T05:51:26.275Z,14.77
2018-10-11T05:53:56.887Z,13.50
2018-10-11T05:56:27.936Z,11.03
2018-10-11T05:58:57.789Z,13.97
2018-10-11T06:01:27.003Z,10.40
2018-10-11T06:03:56.955Z,9.87
2018-10-11T06:06:26.136Z,14.93
2018-10-11T06:09:01.582Z,10.33
2018-10-11T06:11:30.647Z,10.67
2018-10-11T06:13:59.691Z,14.83
2018-10-11T06:16:28.835Z,10.40
2018-10-11T06:18:57.941Z,9.60
2018-10-11T06:21:27.382Z,9.67
2018-10-11T06:23:56.631Z,9.20
2018-10-11T06:26:25.737Z,12.47
2018-10-11T06:28:54.811Z,8.83
2018-10-11T06:31:23.915Z,9.30
2018-10-11T06:33:53.125Z,8.30
2018-10-11T06:36:22.676Z,10.17
2018-10-11T06:38:52.296Z,10.37
2018-10-11T06:41:21.421Z,8.53
2018-10-11T06:43:50.463Z,9.40
2018-10-11T06:46:19.616Z,10.00
2018-10-11T06:48:48.660Z,10.23
2018-10-11T06:51:17.813Z,10.13
2018-10-11T06:53:47.119Z,10.17
2018-10-11T06:56:16.191Z,10.33
2018-10-11T06:58:45.330Z,10.13
2018-10-11T07:01:14.435Z,8.70
2018-10-11T07:03:43.511Z,9.07
2018-10-11T07:06:12.670Z,10.63
2018-10-11T07:08:41.730Z,9.17
2018-10-11T07:11:10.835Z,8.27
2018-10-11T07:13:40.129Z,8.57
2018-10-11T07:16:09.398Z,9.63
2018-10-11T07:18:38.774Z,8.73
2018-10-11T07:21:07.967Z,9.20
2018-10-11T07:23:37.357Z,11.57
2018-10-11T07:26:06.658Z,8.17
2018-10-11T07:28:35.977Z,8.03
2018-10-11T07:31:05.191Z,8.40
2018-10-11T07:33:34.420Z,9.03
2018-10-11T07:36:03.831Z,9.20
2018-10-11T07:38:33.290Z,9.53
2018-10-11T07:41:02.602Z,9.23
2018-10-11T07:43:32.385Z,8.03
2018-10-11T07:46:01.650Z,8.60
2018-10-11T07:48:31.004Z,9.00
2018-10-11T07:51:00.418Z,9.87
2018-10-11T07:53:29.816Z,7.87
2018-10-11T07:55:59.024Z,8.83
2018-10-11T07:58:28.271Z,7.30
2018-10-11T08:00:57.559Z,9.33
2018-10-11T08:03:27.015Z,7.50
2018-10-11T08:05:56.752Z,11.07
2018-10-11T08:08:26.306Z,7.83
2018-10-11T08:10:56.064Z,7.47
2018-10-11T08:13:25.329Z,8.77
2018-10-11T08:15:55.000Z,9.83
2018-10-11T08:18:24.502Z,7.30
2018-10-11T08:20:53.716Z,6.80
2018-10-11T08:23:22.945Z,9.93
2018-10-11T08:25:52.471Z,10.17
2018-10-11T08:28:21.735Z,8.40
2018-10-11T08:30:51.115Z,9.57
2018-10-11T08:33:20.603Z,6.80
2018-10-11T08:35:49.877Z,7.57
2018-10-11T08:38:19.467Z,7.80
2018-10-11T08:40:48.835Z,10.40
2018-10-11T08:43:18.117Z,7.57
2018-10-11T08:45:47.388Z,7.83
2018-10-11T08:48:16.973Z,7.43
2018-10-11T08:50:46.509Z,7.27
2018-10-11T08:53:16.055Z,7.53
2018-10-11T08:55:45.749Z,8.47
2018-10-11T08:58:15.186Z,7.27
2018-10-11T09:00:44.497Z,6.97
2018-10-11T09:03:13.759Z,7.57
2018-10-11T09:05:43.047Z,7.13
2018-10-11T09:08:12.221Z,6.23
2018-10-11T09:10:41.658Z,6.33
2018-10-11T09:13:10.719Z,6.57
2018-10-11T09:15:39.850Z,7.17
2018-10-11T09:18:09.011Z,6.47
2018-10-11T09:20:38.066Z,6.77
2018-10-11T09:23:07.384Z,6.80
2018-10-11T09:25:36.650Z,7.80
2018-10-11T09:28:05.744Z,7.60
2018-10-11T09:30:34.810Z,7.63
2018-10-11T09:33:03.950Z,6.37
2018-10-11T09:35:33.108Z,7.60
2018-10-11T09:38:02.168Z,6.10
2018-10-11T09:40:31.307Z,6.30
2018-10-11T09:43:00.397Z,8.03
2018-10-11T09:45:29.451Z,5.17
2018-10-11T09:47:58.547Z,6.90
2018-10-11T09:50:27.703Z,8.50
2018-10-11T09:52:56.953Z,6.00
2018-10-11T09:55:26.119Z,6.13
2018-10-11T09:57:55.189Z,5.17
2018-10-11T10:00:29.824Z,5.73
2018-10-11T10:02:59.020Z,5.93
2018-10-11T10:05:28.399Z,5.37
2018-10-11T10:07:57.495Z,6.17
2018-10-11T10:10:26.724Z,8.47
2018-10-11T10:12:55.811Z,4.97
2018-10-11T10:15:24.916Z,5.90
2018-10-11T10:17:54.264Z,5.23
2018-10-11T10:20:23.342Z,5.87
2018-10-11T10:22:52.476Z,8.73
2018-10-11T10:25:21.547Z,5.40
2018-10-11T10:27:50.674Z,8.53
2018-10-11T10:30:25.039Z,5.33
2018-10-11T10:32:54.318Z,6.23
2018-10-11T10:35:23.514Z,5.13
2018-10-11T10:37:52.575Z,5.23
2018-10-11T10:40:21.686Z,9.33
2018-10-11T10:42:50.755Z,4.67
2018-10-11T10:45:19.894Z,4.87
2018-10-11T10:47:49.200Z,5.93
2018-10-11T10:50:18.247Z,4.73
2018-10-11T10:52:47.389Z,5.87
2018-10-11T10:55:16.431Z,5.70
2018-10-11T10:57:45.484Z,6.10
2018-10-11T11:00:14.542Z,6.57
2018-10-11T11:02:43.666Z,5.33
2018-10-11T11:05:12.850Z,10.77
2018-10-11T11:07:41.947Z,7.97
2018-10-11T11:10:11.031Z,8.03
2018-10-11T11:12:45.565Z,6.70
2018-10-11T11:15:20.057Z,8.63
2018-10-11T11:17:54.724Z,6.60
2018-10-11T11:20:23.831Z,7.80
2018-10-11T11:22:52.978Z,4.63
2018-10-11T11:25:22.213Z,7.40
2018-10-11T11:27:51.472Z,8.23
2018-10-11T11:30:20.533Z,6.10
2018-10-11T11:32:49.639Z,8.67
2018-10-11T11:35:18.745Z,7.10
2018-10-11T11:37:47.820Z,7.17
2018-10-11T11:40:16.974Z,5.13
2018-10-11T11:42:46.028Z,5.30
2018-10-11T11:45:15.188Z,6.83
2018-10-11T11:47:44.335Z,7.97
2018-10-11T11:50:13.505Z,14.60
2018-10-11T11:52:42.660Z,9.70
2018-10-11T11:55:11.875Z,6.00
2018-10-11T11:57:41.088Z,6.53
2018-10-11T12:00:10.531Z,7.70
2018-10-11T12:02:39.970Z,6.53
2018-10-11T12:05:09.326Z,5.80
2018-10-11T12:07:38.695Z,7.53
2018-10-11T12:10:07.875Z,7.37
2018-10-11T12:12:54.052Z,4.77
2018-10-11T12:15:24.815Z,4.40
2018-10-11T12:17:56.154Z,5.30
2018-10-11T12:20:26.445Z,5.53
2018-10-11T12:22:56.713Z,6.10
2018-10-11T12:25:26.129Z,7.67
2018-10-11T12:27:55.157Z,5.30
2018-10-11T12:30:24.300Z,6.70
2018-10-11T12:32:53.538Z,5.27
2018-10-11T12:35:23.608Z,5.00
2018-10-11T12:37:52.945Z,6.67
2018-10-11T12:40:22.611Z,7.03
2018-10-11T12:42:51.238Z,4.67
2018-10-11T12:45:20.511Z,6.43
2018-10-11T12:47:49.756Z,6.43
2018-10-11T12:50:18.936Z,6.57
2018-10-11T12:52:48.100Z,6.10
2018-10-11T12:55:17.719Z,6.50
2018-10-11T12:57:46.920Z,6.97
2018-10-11T13:00:16.796Z,4.93
2018-10-11T13:02:45.948Z,6.90
2018-10-11T13:05:15.246Z,5.87
2018-10-11T13:07:44.378Z,7.40
2018-10-11T13:10:13.619Z,8.00
2018-10-11T13:12:42.683Z,4.13
2018-10-11T13:15:11.808Z,3.93
2018-10-11T13:17:43.385Z,6.90
2018-10-11T13:20:10.312Z,5.80
2018-10-11T13:22:39.473Z,4.53
2018-10-11T13:25:08.569Z,3.57
2018-10-11T13:27:37.707Z,5.00
2018-10-11T13:30:07.439Z,4.93
2018-10-11T13:32:36.486Z,8.10
2018-10-11T13:35:05.908Z,3.57
2018-10-11T13:37:35.174Z,3.73
2018-10-11T13:40:04.610Z,6.30
2018-10-11T13:42:34.086Z,3.67
2018-10-11T13:45:03.245Z,6.67
2018-10-11T13:47:35.292Z,5.17
2018-10-11T13:50:01.675Z,5.47
2018-10-11T13:52:30.915Z,5.27
2018-10-11T13:55:00.023Z,3.20
2018-10-11T13:57:31.125Z,3.13
2018-10-11T13:59:58.524Z,5.03
2018-10-11T14:02:27.579Z,3.63
2018-10-11T14:04:56.643Z,3.87
2018-10-11T14:07:25.834Z,3.23
2018-10-11T14:09:54.888Z,3.30
2018-10-11T14:12:24.021Z,5.40
2018-10-11T14:14:53.101Z,3.10
2018-10-11T14:17:22.275Z,5.50
2018-10-11T14:19:51.434Z,5.00
2018-10-11T14:22:20.579Z,6.60
2018-10-11T14:24:49.693Z,7.80
2018-10-11T14:27:18.847Z,5.30
2018-10-11T14:29:48.130Z,7.67
2018-10-11T14:32:17.236Z,11.03
2018-10-11T14:34:46.389Z,11.27
2018-10-11T14:37:15.759Z,13.67
2018-10-11T14:39:44.988Z,11.43
2018-10-11T14:42:14.284Z,12.33
2018-10-11T14:44:43.480Z,13.60
2018-10-11T14:47:12.774Z,16.23
2018-10-11T14:49:41.889Z,11.07
2018-10-11T14:52:10.940Z,9.83
2018-10-11T14:54:40.270Z,20.33
2018-10-11T14:57:14.848Z,12.13
2018-10-11T14:59:49.645Z,11.00
2018-10-11T15:02:18.960Z,14.23
2018-10-11T15:04:48.118Z,11.37
2018-10-11T15:07:17.270Z,15.63
2018-10-11T15:09:46.607Z,10.97
2018-10-11T15:12:15.893Z,7.80
2018-10-11T15:14:45.032Z,9.27
2018-10-11T15:17:14.233Z,18.33
2018-10-11T15:19:43.425Z,15.00
2018-10-11T15:22:12.608Z,11.83
2018-10-11T15:24:41.760Z,14.93
2018-10-11T15:27:10.980Z,17.33
2018-10-11T15:29:40.068Z,12.80
2018-10-11T15:32:09.387Z,19.13
2018-10-11T15:34:38.518Z,14.20
2018-10-11T15:37:07.717Z,14.60
2018-10-11T15:39:36.812Z,17.80
2018-10-11T15:42:06.393Z,15.23
2018-10-11T15:44:35.705Z,16.23
2018-10-11T15:47:04.919Z,16.33
2018-10-11T15:49:34.104Z,14.50
2018-10-11T15:52:03.217Z,13.03
2018-10-11T15:54:32.559Z,12.70
2018-10-11T15:57:01.688Z,13.23
2018-10-11T15:59:30.776Z,10.37
2018-10-11T16:01:59.972Z,12.03
2018-10-11T16:04:29.092Z,12.00
2018-10-11T16:06:58.309Z,12.17
2018-10-11T16:09:27.488Z,14.13
2018-10-11T16:11:56.848Z,9.50
2018-10-11T16:14:26.127Z,7.83
2018-10-11T16:16:55.167Z,6.50
2018-10-11T16:19:24.348Z,8.23
2018-10-11T16:21:53.696Z,5.87
2018-10-11T16:24:22.969Z,7.53
2018-10-11T16:26:52.068Z,5.27
2018-10-11T16:29:21.226Z,10.20
2018-10-11T16:31:50.351Z,5.90
2018-10-11T16:34:19.504Z,6.93
2018-10-11T16:36:48.615Z,7.90
2018-10-11T16:39:17.835Z,6.67
2018-10-11T16:41:47.123Z,8.23
2018-10-11T16:44:16.280Z,5.77
2018-10-11T16:46:45.420Z,5.63
2018-10-11T16:49:14.481Z,6.33
2018-10-11T16:51:43.658Z,7.23
2018-10-11T16:54:12.742Z,7.93
2018-10-11T16:56:41.916Z,5.33
2018-10-11T16:59:10.976Z,7.63
2018-10-11T17:01:40.130Z,8.17
2018-10-11T17:04:09.280Z,4.87
2018-10-11T17:06:38.551Z,7.10
2018-10-11T17:09:09.267Z,5.27
2018-10-11T17:11:38.527Z,3.97
2018-10-11T17:14:07.621Z,5.27
2018-10-11T17:16:36.859Z,4.80
2018-10-11T17:19:06.079Z,7.10
2018-10-11T17:21:35.230Z,7.70
2018-10-11T17:24:04.440Z,5.60
2018-10-11T17:26:33.559Z,4.37
2018-10-11T17:29:02.606Z,5.80
2018-10-11T17:31:31.697Z,8.17
2018-10-11T17:34:00.826Z,5.00
2018-10-11T17:36:30.932Z,5.43
2018-10-11T17:39:00.159Z,3.63
2018-10-11T17:41:29.240Z,5.13
2018-10-11T17:43:58.391Z,5.20
2018-10-11T17:46:27.651Z,3.77
2018-10-11T17:48:56.867Z,3.53
2018-10-11T17:51:25.970Z,5.17
2018-10-11T17:53:55.059Z,4.73
2018-10-11T17:56:24.123Z,5.50
2018-10-11T17:58:53.238Z,3.97
2018-10-11T18:01:22.320Z,4.13
2018-10-11T18:03:51.412Z,3.83
2018-10-11T18:06:20.634Z,4.73
2018-10-11T18:08:49.701Z,3.73
2018-10-11T18:11:18.803Z,4.77
2018-10-11T18:13:48.038Z,6.03
2018-10-11T18:16:17.260Z,3.93
2018-10-11T18:18:46.502Z,3.97
2018-10-11T18:21:15.590Z,5.23
2018-10-11T18:23:44.722Z,3.70
2018-10-11T18:26:13.786Z,3.53
2018-10-11T18:28:42.924Z,4.00
2018-10-11T18:31:11.991Z,3.63
2018-10-11T18:33:41.044Z,4.27
2018-10-11T18:36:10.130Z,4.70
2018-10-11T18:38:39.198Z,3.37
2018-10-11T18:41:08.399Z,5.57
2018-10-11T18:43:37.702Z,3.90
2018-10-11T18:46:06.770Z,3.70
2018-10-11T18:48:35.857Z,4.13
2018-10-11T18:51:05.070Z,4.17
2018-10-11T18:53:34.242Z,3.83
2018-10-11T18:56:03.301Z,4.40
2018-10-11T18:58:32.474Z,4.97
2018-10-11T19:01:01.618Z,5.00
2018-10-11T19:03:30.774Z,5.13
2018-10-11T19:05:59.931Z,4.40
2018-10-11T19:08:29.617Z,3.70
2018-10-11T19:10:59.065Z,3.97
2018-10-11T19:13:28.151Z,3.23
2018-10-11T19:15:57.360Z,5.20
2018-10-11T19:18:26.475Z,4.20
2018-10-11T19:20:55.663Z,8.20
2018-10-11T19:23:24.951Z,7.00
2018-10-11T19:25:54.111Z,4.00
2018-10-11T19:28:23.257Z,3.67
2018-10-11T19:30:52.457Z,5.20
2018-10-11T19:33:21.683Z,6.23
2018-10-11T19:35:51.207Z,3.10
2018-10-11T19:38:20.420Z,5.17
2018-10-11T19:40:49.559Z,4.67
2018-10-11T19:43:18.830Z,4.47
2018-10-11T19:45:48.065Z,3.50
2018-10-11T19:48:17.182Z,4.63
2018-10-11T19:50:46.464Z,4.30
2018-10-11T19:53:15.513Z,3.00
2018-10-11T19:55:44.650Z,4.80
2018-10-11T19:58:13.745Z,3.17
2018-10-11T20:00:42.826Z,6.63
2018-10-11T20:03:12.016Z,2.90
2018-10-11T20:05:41.137Z,3.57
2018-10-11T20:08:10.317Z,4.43
2018-10-11T20:10:39.561Z,5.10
2018-10-11T20:13:08.698Z,5.03
2018-10-11T20:15:37.808Z,3.50
2018-10-11T20:18:06.875Z,3.17
2018-10-11T20:20:36.029Z,4.53
2018-10-11T20:23:05.106Z,4.20
2018-10-11T20:25:34.257Z,4.03
2018-10-11T20:28:03.393Z,3.57
2018-10-11T20:30:32.472Z,5.90
2018-10-11T20:33:01.608Z,2.80
2018-10-11T20:35:30.803Z,3.67
2018-10-11T20:37:59.896Z,2.60
2018-10-11T20:40:29.018Z,3.43
2018-10-11T20:42:58.088Z,3.20
2018-10-11T20:45:27.165Z,4.73
2018-10-11T20:47:56.307Z,4.13
2018-10-11T20:50:25.508Z,4.00
2018-10-11T20:52:54.578Z,3.43
2018-10-11T20:55:23.736Z,3.47
2018-10-11T20:57:52.812Z,5.50
2018-10-11T21:00:21.916Z,3.37
2018-10-11T21:02:50.997Z,2.73
2018-10-11T21:05:20.136Z,3.00
2018-10-11T21:07:49.225Z,7.23
2018-10-11T21:10:18.444Z,2.50
2018-10-11T21:12:47.583Z,6.57
2018-10-11T21:15:16.633Z,3.20
2018-10-11T21:17:45.842Z,3.13
2018-10-11T21:20:20.378Z,2.97
2018-10-11T21:22:51.201Z,2.60
2018-10-11T21:25:20.264Z,4.83
2018-10-11T21:27:49.353Z,3.93
2018-10-11T21:30:18.475Z,3.70
2018-10-11T21:32:47.536Z,2.80
2018-10-11T21:35:16.667Z,3.10
2018-10-11T21:37:45.723Z,3.13
2018-10-11T21:40:14.789Z,3.43
2018-10-11T21:42:44.058Z,5.37
2018-10-11T21:45:13.137Z,2.70
2018-10-11T21:47:42.199Z,5.33
2018-10-11T21:50:11.323Z,3.00
2018-10-11T21:52:40.451Z,2.60
2018-10-11T21:55:09.704Z,3.20
2018-10-11T21:57:38.782Z,3.00
2018-10-11T22:00:08.400Z,4.27
2018-10-11T22:02:37.502Z,2.77
2018-10-11T22:05:06.896Z,4.40
2018-10-11T22:07:35.990Z,6.00
2018-10-11T22:10:05.457Z,3.17
2018-10-11T22:12:34.633Z,3.40
2018-10-11T22:15:03.862Z,2.93
2018-10-11T22:17:33.033Z,2.30
2018-10-11T22:21:05.027Z,3.53
2018-10-11T22:23:34.155Z,3.67
2018-10-11T22:26:03.299Z,2.60
2018-10-11T22:28:32.394Z,3.70
2018-10-11T22:31:01.473Z,4.00
2018-10-11T22:33:30.542Z,2.83
2018-10-11T22:35:59.640Z,2.73
2018-10-11T22:38:28.753Z,4.60
2018-10-11T22:40:57.844Z,2.83
2018-10-11T22:43:27.969Z,3.27
2018-10-11T22:45:57.090Z,3.03
2018-10-11T22:48:26.387Z,3.60
2018-10-11T22:50:55.574Z,2.93
2018-10-11T22:53:24.678Z,3.90
2018-10-11T22:55:53.755Z,3.83
2018-10-11T22:58:22.802Z,3.93
2018-10-11T23:00:51.994Z,3.50
2018-10-11T23:03:21.080Z,2.30
2018-10-11T23:05:51.015Z,3.43
2018-10-11T23:08:20.208Z,2.17
2018-10-11T23:10:49.337Z,4.47
2018-10-11T23:13:18.410Z,2.83
2018-10-11T23:15:47.512Z,2.20
2018-10-11T23:18:16.817Z,2.07
2018-10-11T23:20:45.903Z,2.50
2018-10-11T23:23:14.980Z,4.13
2018-10-11T23:25:44.054Z,2.53
2018-10-11T23:28:13.275Z,2.67
2018-10-11T23:30:42.460Z,2.43
2018-10-11T23:33:11.560Z,3.23
2018-10-11T23:35:40.617Z,1.90
2018-10-11T23:38:09.650Z,1.63
2018-10-11T23:40:39.858Z,3.87
2018-10-11T23:43:09.008Z,3.07
2018-10-11T23:45:38.158Z,2.80
2018-10-11T23:48:07.277Z,2.87
2018-10-11T23:50:36.370Z,2.67
2018-10-11T23:53:05.434Z,3.43
2018-10-11T23:55:34.516Z,3.73
2018-10-11T23:58:04.159Z,2.33
